WetterOnline ( https://www.wetteronline.de )

Wetter aktuell Paderborn

Aktuelles Wetter: Bad Lippspringe (158m)

6-stündlich | Neueste Meldungen
Ortszeit Temperatur Wetter
Mo, 15.08. 8:00 22.7° C wolkig
Mo, 15.08. 2:00 23.3° C wolkig
So, 14.08. 20:00 29.0° C leicht bewölkt
So, 14.08. 14:00 29.1° C leicht bewölkt
So, 14.08. 8:00 21.1° C wolkenlos
So, 14.08. 2:00 21.0° C wolkig
Sa, 13.08. 20:00 27.8° C wolkenlos
Sa, 13.08. 14:00 29.6° C leicht bewölkt
Ortszeit Temperatur Wetter
Mo, 15.08. 13:30 21.1° C wolkig
Mo, 15.08. 13:20 21.1° C wolkig
Mo, 15.08. 13:10 20.7° C bedeckt
Mo, 15.08. 13:00 20.3° C bedeckt
Mo, 15.08. 12:50 20.3° C bedeckt
Mo, 15.08. 12:40 19.5° C leichter Regen
Mo, 15.08. 12:30 23.9° C bedeckt
Mo, 15.08. 12:00 25.3° C bedeckt
Mo, 15.08. 11:30 25.3° C bewölkt
Mo, 15.08. 11:00 26.2° C wolkig
Mo, 15.08. 10:30 25.1° C bedeckt
Ortszeit Relative Feuchte Sichtweite
Mo, 15.08. 8:00 60% 40 km
Mo, 15.08. 2:00 57% 55 km
So, 14.08. 20:00 40% 60 km
So, 14.08. 14:00 43% 50 km
So, 14.08. 8:00 69% 35 km
So, 14.08. 2:00 66% 50 km
Sa, 13.08. 20:00 40% 50 km
Sa, 13.08. 14:00 33% >70 km
Ortszeit Relative Feuchte Sichtweite
Mo, 15.08. 13:30 76% 30 km
Mo, 15.08. 13:20 76% -
Mo, 15.08. 13:10 78% -
Mo, 15.08. 13:00 78% 40 km
Mo, 15.08. 12:50 78% -
Mo, 15.08. 12:40 77% -
Mo, 15.08. 12:30 49% 60 km
Mo, 15.08. 12:00 49% 55 km
Mo, 15.08. 11:30 47% 55 km
Mo, 15.08. 11:00 47% 60 km
Mo, 15.08. 10:30 47% 50 km
Ortszeit Niederschlagsmenge Niederschlagsart
Mo, 15.08. 8:00 0.1 l/m2 in 12 Std. Regen
Mo, 15.08. 2:00 0.0 l/m2 in 6 Std. -
So, 14.08. 20:00 0.0 l/m2 in 12 Std. -
So, 14.08. 14:00 0.0 l/m2 in 6 Std. -
So, 14.08. 8:00 0.0 l/m2 in 12 Std. -
So, 14.08. 2:00 0.0 l/m2 in 6 Std. -
Sa, 13.08. 20:00 0.0 l/m2 in 12 Std. -
Sa, 13.08. 14:00 0.0 l/m2 in 6 Std. -
Ortszeit Niederschlagsmenge Niederschlagsart
Mo, 15.08. 13:30 0.1 l/m2 in 1 Std. Schneeregen
Mo, 15.08. 13:20 keine Meldung -
Mo, 15.08. 13:10 keine Meldung -
Mo, 15.08. 13:00 1.9 l/m2 in 1 Std. Regen
Mo, 15.08. 12:50 keine Meldung -
Mo, 15.08. 12:40 keine Meldung -
Mo, 15.08. 12:30 0.0 l/m2 in 1 Std. -
Mo, 15.08. 12:00 0.0 l/m2 in 1 Std. -
Mo, 15.08. 11:30 0.0 l/m2 in 1 Std. -
Mo, 15.08. 11:00 0.0 l/m2 in 1 Std. -
Mo, 15.08. 10:30 0.0 l/m2 in 1 Std. -
Ortszeit Stärke Spitze Richtung
km/h Bft. km/h Grad Sektor
Mo, 15.08. 8:00 4 1 25 230° SW
Mo, 15.08. 2:00 4 1 25 100° O
So, 14.08. 20:00 11 2 40 130° SO
So, 14.08. 14:00 15 3 33 170° S
So, 14.08. 8:00 18 3 25 120° SO
So, 14.08. 2:00 4 1 25 190° S
Sa, 13.08. 20:00 17 3 33 90° O
Sa, 13.08. 14:00 14 3 29 80° O
Ortszeit Stärke Spitze Richtung
km/h Bft. km/h Grad Sektor
Mo, 15.08. 13:30 4 1 11 160° S
Mo, 15.08. 13:20 4 1 - 160° S
Mo, 15.08. 13:10 4 1 - 180° S
Mo, 15.08. 13:00 11 2 26 280° W
Mo, 15.08. 12:50 11 2 - 280° W
Mo, 15.08. 12:40 14 3 - 230° SW
Mo, 15.08. 12:30 17 3 24 250° W
Mo, 15.08. 12:00 7 2 22 240° SW
Mo, 15.08. 11:30 11 2 22 280° W
Mo, 15.08. 11:00 11 2 31 280° W
Mo, 15.08. 10:30 17 3 31 280° W
Ortszeit Untergrenze Bedeckung Gattung
total tief tief mittel hoch
Mo, 15.08. 8:00 7200 m 7/8 0/8 - - -
Mo, 15.08. 2:00 2400 m 8/8 2/8 - - -
So, 14.08. 20:00 2700 m 8/8 1/8 - - -
So, 14.08. 14:00 1500 m 2/8 2/8 - - -
So, 14.08. 8:00 - 0/8 0/8 - - -
So, 14.08. 2:00 8100 m 8/8 0/8 - - -
Sa, 13.08. 20:00 - 0/8 0/8 - - -
Sa, 13.08. 14:00 2100 m 3/8 3/8 - - -
Ortszeit Bedeckungsgrad in Achtel und Wolkenuntergrenze
Mo, 15.08. 13:30 3(2100m) 7(3300m) 7(4200m)
Mo, 15.08. 13:20 3(2100m) 7(3300m) 7(4200m)
Mo, 15.08. 13:10 8
Mo, 15.08. 13:00 3(1020m) 5(1800m) 8(2400m)
Mo, 15.08. 12:50 3(1020m) 5(1800m) 8(2400m)
Mo, 15.08. 12:40 8
Mo, 15.08. 12:30 7(2100m) 8(2700m)
Mo, 15.08. 12:00 7(1800m) 8(2400m) 8(3300m)
Mo, 15.08. 11:30 4(2100m) 8(6900m) 8(8400m)
Mo, 15.08. 11:00 2(5400m) 7(6900m) 8(8100m)
Mo, 15.08. 10:30 1(3300m) 8(6600m) 8(8400m)
Ortszeit Luftdruck NN (hPa) Tendenz (hPa in 3 Std.)
Mo, 15.08. 8:00 1003 - 0,5
Mo, 15.08. 2:00 1005 - 0,4
So, 14.08. 20:00 1005 - 1,1
So, 14.08. 14:00 1009 - 1,8
So, 14.08. 8:00 1012 - 1,0
So, 14.08. 2:00 1014 - 0,7
Sa, 13.08. 20:00 1014 - 1,4
Sa, 13.08. 14:00 1016 - 1,4
Ortszeit Luftdruck NN (hPa) Tendenz (hPa in 3 Std.)
Mo, 15.08. 13:30 1005 + 1,0
Mo, 15.08. 13:20 1005 keine Meldung
Mo, 15.08. 13:10 1005 keine Meldung
Mo, 15.08. 13:00 1005 + 0,7
Mo, 15.08. 12:50 1005 keine Meldung
Mo, 15.08. 12:40 1005 keine Meldung
Mo, 15.08. 12:30 1005 + 1,1
Mo, 15.08. 12:00 1005 + 0,9
Mo, 15.08. 11:30 1004 + 0,5
Mo, 15.08. 11:00 1004 + 0,7
Mo, 15.08. 10:30 1004 + 0,6
Ortszeit Schneehöhe (cm)
Mo, 15.08. 8:00 0
Mo, 15.08. 2:00 0
So, 14.08. 20:00 0
So, 14.08. 14:00 0
So, 14.08. 8:00 0
So, 14.08. 2:00 0
Sa, 13.08. 20:00 0
Sa, 13.08. 14:00 0
Ortszeit Schneehöhe (cm)
Mo, 15.08. 13:30 0
Mo, 15.08. 13:20 0
Mo, 15.08. 13:10 0
Mo, 15.08. 13:00 0
Mo, 15.08. 12:50 0
Mo, 15.08. 12:40 0
Mo, 15.08. 12:30 0
Mo, 15.08. 12:00 0
Mo, 15.08. 11:30 0
Mo, 15.08. 11:00 0
Mo, 15.08. 10:30 0
Link zu dieser Seite / Seite empfehlen

Das Wetter in ...